sensor_id;sensor_type;location;lat;lon;timestamp;P1;durP1;ratioP1;P2;durP2;ratioP2
26271;SDS011;13997;48.902;12.472;2022-08-19T00:00:12;18.50;;;12.70;;
26271;SDS011;13997;48.902;12.472;2022-08-19T00:02:39;16.95;;;12.63;;
26271;SDS011;13997;48.902;12.472;2022-08-19T00:05:06;16.00;;;12.82;;
26271;SDS011;13997;48.902;12.472;2022-08-19T00:07:32;15.95;;;12.75;;
26271;SDS011;13997;48.902;12.472;2022-08-19T00:09:58;16.80;;;12.65;;
26271;SDS011;13997;48.902;12.472;2022-08-19T00:12:24;15.73;;;13.45;;
26271;SDS011;13997;48.902;12.472;2022-08-19T00:14:50;15.10;;;13.43;;
26271;SDS011;13997;48.902;12.472;2022-08-19T00:17:17;22.48;;;14.90;;
26271;SDS011;13997;48.902;12.472;2022-08-19T00:19:43;18.60;;;14.68;;
26271;SDS011;13997;48.902;12.472;2022-08-19T00:22:10;18.15;;;13.93;;
26271;SDS011;13997;48.902;12.472;2022-08-19T00:24:35;21.63;;;14.98;;
26271;SDS011;13997;48.902;12.472;2022-08-19T00:27:03;16.50;;;14.23;;
26271;SDS011;13997;48.902;12.472;2022-08-19T00:29:29;18.50;;;12.75;;
26271;SDS011;13997;48.902;12.472;2022-08-19T00:31:56;18.50;;;13.48;;
26271;SDS011;13997;48.902;12.472;2022-08-19T00:34:24;18.15;;;14.38;;
26271;SDS011;13997;48.902;12.472;2022-08-19T00:36:53;19.73;;;14.73;;
26271;SDS011;13997;48.902;12.472;2022-08-19T00:39:19;17.13;;;14.05;;
26271;SDS011;13997;48.902;12.472;2022-08-19T00:41:46;18.33;;;13.63;;
26271;SDS011;13997;48.902;12.472;2022-08-19T00:44:21;16.58;;;13.77;;
26271;SDS011;13997;48.902;12.472;2022-08-19T00:46:48;16.85;;;13.75;;
26271;SDS011;13997;48.902;12.472;2022-08-19T00:49:20;15.70;;;13.27;;
26271;SDS011;13997;48.902;12.472;2022-08-19T00:51:50;17.23;;;13.98;;
26271;SDS011;13997;48.902;12.472;2022-08-19T00:54:17;17.88;;;13.32;;
26271;SDS011;13997;48.902;12.472;2022-08-19T00:56:43;20.98;;;14.35;;
26271;SDS011;13997;48.902;12.472;2022-08-19T00:59:09;18.48;;;14.63;;
26271;SDS011;13997;48.902;12.472;2022-08-19T01:01:36;19.95;;;13.55;;
26271;SDS011;13997;48.902;12.472;2022-08-19T01:04:03;18.15;;;12.90;;
26271;SDS011;13997;48.902;12.472;2022-08-19T01:06:28;16.77;;;11.57;;
26271;SDS011;13997;48.902;12.472;2022-08-19T01:08:57;16.67;;;12.80;;
26271;SDS011;13997;48.902;12.472;2022-08-19T01:11:23;14.88;;;12.18;;
26271;SDS011;13997;48.902;12.472;2022-08-19T01:13:50;18.10;;;12.70;;
26271;SDS011;13997;48.902;12.472;2022-08-19T01:16:18;17.38;;;13.82;;
26271;SDS011;13997;48.902;12.472;2022-08-19T01:18:44;20.92;;;15.50;;
26271;SDS011;13997;48.902;12.472;2022-08-19T01:21:22;17.88;;;15.60;;
26271;SDS011;13997;48.902;12.472;2022-08-19T01:23:51;21.10;;;16.30;;
26271;SDS011;13997;48.902;12.472;2022-08-19T01:26:18;19.17;;;15.57;;
26271;SDS011;13997;48.902;12.472;2022-08-19T01:28:46;19.73;;;15.45;;
26271;SDS011;13997;48.902;12.472;2022-08-19T01:31:14;18.80;;;15.73;;
26271;SDS011;13997;48.902;12.472;2022-08-19T01:33:40;22.38;;;18.38;;
26271;SDS011;13997;48.902;12.472;2022-08-19T01:36:11;23.77;;;18.38;;
26271;SDS011;13997;48.902;12.472;2022-08-19T01:38:38;22.52;;;18.13;;
26271;SDS011;13997;48.902;12.472;2022-08-19T01:41:05;26.52;;;18.92;;
26271;SDS011;13997;48.902;12.472;2022-08-19T01:43:31;22.42;;;19.00;;
26271;SDS011;13997;48.902;12.472;2022-08-19T01:45:57;24.02;;;19.35;;
26271;SDS011;13997;48.902;12.472;2022-08-19T01:48:23;25.02;;;20.50;;
26271;SDS011;13997;48.902;12.472;2022-08-19T01:50:49;26.75;;;20.50;;
26271;SDS011;13997;48.902;12.472;2022-08-19T01:53:15;25.52;;;20.00;;
26271;SDS011;13997;48.902;12.472;2022-08-19T01:55:42;22.33;;;18.05;;
26271;SDS011;13997;48.902;12.472;2022-08-19T01:58:12;22.70;;;19.25;;
26271;SDS011;13997;48.902;12.472;2022-08-19T02:00:40;28.38;;;19.50;;
26271;SDS011;13997;48.902;12.472;2022-08-19T02:03:06;22.67;;;18.98;;
26271;SDS011;13997;48.902;12.472;2022-08-19T02:05:34;23.05;;;20.55;;
26271;SDS011;13997;48.902;12.472;2022-08-19T02:08:00;26.30;;;20.63;;
26271;SDS011;13997;48.902;12.472;2022-08-19T02:10:26;26.20;;;21.55;;
26271;SDS011;13997;48.902;12.472;2022-08-19T02:12:52;26.00;;;22.08;;
26271;SDS011;13997;48.902;12.472;2022-08-19T02:15:19;25.75;;;21.50;;
26271;SDS011;13997;48.902;12.472;2022-08-19T02:17:45;25.38;;;20.25;;
26271;SDS011;13997;48.902;12.472;2022-08-19T02:20:11;25.40;;;20.65;;
26271;SDS011;13997;48.902;12.472;2022-08-19T02:22:38;26.92;;;21.95;;
26271;SDS011;13997;48.902;12.472;2022-08-19T02:25:06;31.13;;;21.15;;
26271;SDS011;13997;48.902;12.472;2022-08-19T02:27:32;25.83;;;21.90;;
26271;SDS011;13997;48.902;12.472;2022-08-19T02:29:58;28.95;;;21.77;;
26271;SDS011;13997;48.902;12.472;2022-08-19T02:32:25;33.00;;;23.98;;
26271;SDS011;13997;48.902;12.472;2022-08-19T02:34:52;29.33;;;22.13;;
26271;SDS011;13997;48.902;12.472;2022-08-19T02:37:18;33.03;;;23.35;;
26271;SDS011;13997;48.902;12.472;2022-08-19T02:40:03;28.40;;;22.90;;
26271;SDS011;13997;48.902;12.472;2022-08-19T02:42:29;29.17;;;23.77;;
26271;SDS011;13997;48.902;12.472;2022-08-19T02:44:56;31.38;;;24.92;;
26271;SDS011;13997;48.902;12.472;2022-08-19T02:47:22;30.77;;;24.30;;
26271;SDS011;13997;48.902;12.472;2022-08-19T02:49:48;30.02;;;24.08;;
26271;SDS011;13997;48.902;12.472;2022-08-19T02:52:17;29.23;;;23.15;;
26271;SDS011;13997;48.902;12.472;2022-08-19T02:54:43;33.00;;;24.73;;
26271;SDS011;13997;48.902;12.472;2022-08-19T02:57:09;29.42;;;24.88;;
26271;SDS011;13997;48.902;12.472;2022-08-19T02:59:35;32.22;;;23.40;;
26271;SDS011;13997;48.902;12.472;2022-08-19T03:02:01;29.77;;;23.23;;
26271;SDS011;13997;48.902;12.472;2022-08-19T03:04:27;32.13;;;23.33;;
26271;SDS011;13997;48.902;12.472;2022-08-19T03:06:54;33.50;;;25.15;;
26271;SDS011;13997;48.902;12.472;2022-08-19T03:09:20;32.95;;;23.95;;
26271;SDS011;13997;48.902;12.472;2022-08-19T03:11:46;26.40;;;22.10;;
26271;SDS011;13997;48.902;12.472;2022-08-19T03:14:12;27.13;;;21.15;;
26271;SDS011;13997;48.902;12.472;2022-08-19T03:16:41;29.83;;;24.25;;
26271;SDS011;13997;48.902;12.472;2022-08-19T03:19:07;28.63;;;23.52;;
26271;SDS011;13997;48.902;12.472;2022-08-19T03:21:33;26.25;;;22.00;;
26271;SDS011;13997;48.902;12.472;2022-08-19T03:24:00;27.95;;;22.77;;
26271;SDS011;13997;48.902;12.472;2022-08-19T03:26:26;26.60;;;22.33;;
26271;SDS011;13997;48.902;12.472;2022-08-19T03:28:52;28.95;;;23.23;;
26271;SDS011;13997;48.902;12.472;2022-08-19T03:31:19;25.92;;;19.60;;
26271;SDS011;13997;48.902;12.472;2022-08-19T03:33:49;30.00;;;22.48;;
26271;SDS011;13997;48.902;12.472;2022-08-19T03:36:17;27.17;;;20.65;;
26271;SDS011;13997;48.902;12.472;2022-08-19T03:38:45;26.38;;;22.30;;
26271;SDS011;13997;48.902;12.472;2022-08-19T03:41:13;25.67;;;21.50;;
26271;SDS011;13997;48.902;12.472;2022-08-19T03:43:40;24.05;;;20.35;;
26271;SDS011;13997;48.902;12.472;2022-08-19T03:46:08;26.42;;;20.42;;
26271;SDS011;13997;48.902;12.472;2022-08-19T03:48:35;26.02;;;20.63;;
26271;SDS011;13997;48.902;12.472;2022-08-19T03:51:02;25.83;;;21.25;;
26271;SDS011;13997;48.902;12.472;2022-08-19T03:53:28;24.52;;;19.38;;
26271;SDS011;13997;48.902;12.472;2022-08-19T03:55:55;28.88;;;22.98;;
26271;SDS011;13997;48.902;12.472;2022-08-19T03:58:21;24.92;;;21.15;;
26271;SDS011;13997;48.902;12.472;2022-08-19T04:00:48;25.85;;;19.80;;
26271;SDS011;13997;48.902;12.472;2022-08-19T04:03:14;23.80;;;20.40;;
26271;SDS011;13997;48.902;12.472;2022-08-19T04:05:40;22.67;;;20.25;;
26271;SDS011;13997;48.902;12.472;2022-08-19T04:08:06;26.85;;;19.90;;
26271;SDS011;13997;48.902;12.472;2022-08-19T04:10:35;27.52;;;20.98;;
26271;SDS011;13997;48.902;12.472;2022-08-19T04:13:02;24.92;;;19.70;;
26271;SDS011;13997;48.902;12.472;2022-08-19T04:15:30;23.60;;;19.83;;
26271;SDS011;13997;48.902;12.472;2022-08-19T04:18:00;26.98;;;20.40;;
26271;SDS011;13997;48.902;12.472;2022-08-19T04:20:26;29.85;;;24.23;;
26271;SDS011;13997;48.902;12.472;2022-08-19T04:22:52;29.65;;;23.80;;
26271;SDS011;13997;48.902;12.472;2022-08-19T04:25:18;26.02;;;20.55;;
26271;SDS011;13997;48.902;12.472;2022-08-19T04:27:44;28.13;;;22.08;;
26271;SDS011;13997;48.902;12.472;2022-08-19T04:30:11;25.75;;;20.83;;
26271;SDS011;13997;48.902;12.472;2022-08-19T04:32:37;26.83;;;21.30;;
26271;SDS011;13997;48.902;12.472;2022-08-19T04:35:04;21.80;;;18.13;;
26271;SDS011;13997;48.902;12.472;2022-08-19T04:37:30;21.35;;;19.05;;
26271;SDS011;13997;48.902;12.472;2022-08-19T04:39:58;23.02;;;18.58;;
26271;SDS011;13997;48.902;12.472;2022-08-19T04:42:43;24.10;;;19.27;;
26271;SDS011;13997;48.902;12.472;2022-08-19T04:45:10;22.75;;;19.23;;
26271;SDS011;13997;48.902;12.472;2022-08-19T04:47:37;23.67;;;18.65;;
26271;SDS011;13997;48.902;12.472;2022-08-19T04:50:04;23.58;;;19.52;;
26271;SDS011;13997;48.902;12.472;2022-08-19T04:52:30;21.08;;;18.80;;
26271;SDS011;13997;48.902;12.472;2022-08-19T04:54:57;21.58;;;18.90;;
26271;SDS011;13997;48.902;12.472;2022-08-19T04:57:23;21.17;;;18.15;;
26271;SDS011;13997;48.902;12.472;2022-08-19T04:59:49;23.00;;;19.40;;
26271;SDS011;13997;48.902;12.472;2022-08-19T05:02:18;22.60;;;18.75;;
26271;SDS011;13997;48.902;12.472;2022-08-19T05:04:44;19.92;;;17.77;;
26271;SDS011;13997;48.902;12.472;2022-08-19T05:07:10;22.33;;;19.10;;
26271;SDS011;13997;48.902;12.472;2022-08-19T05:09:37;23.20;;;20.65;;
26271;SDS011;13997;48.902;12.472;2022-08-19T05:12:03;25.38;;;19.90;;
26271;SDS011;13997;48.902;12.472;2022-08-19T05:14:29;24.95;;;20.73;;
26271;SDS011;13997;48.902;12.472;2022-08-19T05:16:55;25.67;;;20.15;;
26271;SDS011;13997;48.902;12.472;2022-08-19T05:19:21;20.73;;;18.02;;
26271;SDS011;13997;48.902;12.472;2022-08-19T05:22:06;25.67;;;19.55;;
26271;SDS011;13997;48.902;12.472;2022-08-19T05:24:51;24.70;;;19.70;;
26271;SDS011;13997;48.902;12.472;2022-08-19T05:27:17;23.83;;;20.38;;
26271;SDS011;13997;48.902;12.472;2022-08-19T05:29:43;24.05;;;20.00;;
26271;SDS011;13997;48.902;12.472;2022-08-19T05:32:09;20.73;;;18.52;;
26271;SDS011;13997;48.902;12.472;2022-08-19T05:34:35;23.35;;;20.80;;
26271;SDS011;13997;48.902;12.472;2022-08-19T05:37:03;26.35;;;20.90;;
26271;SDS011;13997;48.902;12.472;2022-08-19T05:39:31;25.98;;;20.77;;
26271;SDS011;13997;48.902;12.472;2022-08-19T05:41:58;40.78;;;22.58;;
26271;SDS011;13997;48.902;12.472;2022-08-19T05:44:25;24.67;;;20.48;;
26271;SDS011;13997;48.902;12.472;2022-08-19T05:46:51;24.73;;;20.67;;
26271;SDS011;13997;48.902;12.472;2022-08-19T05:49:18;25.80;;;21.27;;
26271;SDS011;13997;48.902;12.472;2022-08-19T05:51:44;24.92;;;21.52;;
26271;SDS011;13997;48.902;12.472;2022-08-19T05:54:11;23.55;;;20.17;;
26271;SDS011;13997;48.902;12.472;2022-08-19T05:56:38;23.17;;;19.70;;
26271;SDS011;13997;48.902;12.472;2022-08-19T05:59:05;27.05;;;22.40;;
26271;SDS011;13997;48.902;12.472;2022-08-19T06:01:33;21.70;;;18.45;;
26271;SDS011;13997;48.902;12.472;2022-08-19T06:03:59;27.92;;;21.77;;
26271;SDS011;13997;48.902;12.472;2022-08-19T06:06:25;23.83;;;19.73;;
26271;SDS011;13997;48.902;12.472;2022-08-19T06:08:51;25.13;;;21.33;;
26271;SDS011;13997;48.902;12.472;2022-08-19T06:13:44;23.65;;;21.02;;
26271;SDS011;13997;48.902;12.472;2022-08-19T06:16:15;25.42;;;20.08;;
26271;SDS011;13997;48.902;12.472;2022-08-19T06:18:51;21.05;;;17.48;;
26271;SDS011;13997;48.902;12.472;2022-08-19T06:21:21;23.67;;;17.83;;
26271;SDS011;13997;48.902;12.472;2022-08-19T06:23:47;22.00;;;19.55;;
26271;SDS011;13997;48.902;12.472;2022-08-19T06:26:14;24.58;;;19.17;;
26271;SDS011;13997;48.902;12.472;2022-08-19T06:28:41;23.92;;;18.77;;
26271;SDS011;13997;48.902;12.472;2022-08-19T06:31:10;21.33;;;19.13;;
26271;SDS011;13997;48.902;12.472;2022-08-19T06:33:38;22.92;;;17.58;;
26271;SDS011;13997;48.902;12.472;2022-08-19T06:36:05;19.75;;;17.55;;
26271;SDS011;13997;48.902;12.472;2022-08-19T06:38:31;21.52;;;18.50;;
26271;SDS011;13997;48.902;12.472;2022-08-19T06:41:02;25.20;;;18.83;;
26271;SDS011;13997;48.902;12.472;2022-08-19T06:43:28;24.80;;;20.85;;
26271;SDS011;13997;48.902;12.472;2022-08-19T06:45:54;26.20;;;20.70;;
26271;SDS011;13997;48.902;12.472;2022-08-19T06:48:20;22.08;;;18.70;;
26271;SDS011;13997;48.902;12.472;2022-08-19T06:50:46;25.52;;;21.67;;
26271;SDS011;13997;48.902;12.472;2022-08-19T06:53:13;27.35;;;20.67;;
26271;SDS011;13997;48.902;12.472;2022-08-19T06:55:39;27.92;;;20.67;;
26271;SDS011;13997;48.902;12.472;2022-08-19T06:58:06;26.42;;;23.00;;
26271;SDS011;13997;48.902;12.472;2022-08-19T07:00:32;27.55;;;21.25;;
26271;SDS011;13997;48.902;12.472;2022-08-19T07:02:58;27.70;;;23.70;;
26271;SDS011;13997;48.902;12.472;2022-08-19T07:05:25;27.83;;;23.10;;
26271;SDS011;13997;48.902;12.472;2022-08-19T07:07:51;26.90;;;22.38;;
26271;SDS011;13997;48.902;12.472;2022-08-19T07:10:17;30.05;;;22.75;;
26271;SDS011;13997;48.902;12.472;2022-08-19T07:12:44;28.35;;;23.75;;
26271;SDS011;13997;48.902;12.472;2022-08-19T07:15:10;27.08;;;24.15;;
26271;SDS011;13997;48.902;12.472;2022-08-19T07:17:37;26.30;;;23.00;;
26271;SDS011;13997;48.902;12.472;2022-08-19T07:20:04;25.25;;;22.50;;
26271;SDS011;13997;48.902;12.472;2022-08-19T07:22:31;28.75;;;22.13;;
26271;SDS011;13997;48.902;12.472;2022-08-19T07:24:58;28.17;;;22.58;;
26271;SDS011;13997;48.902;12.472;2022-08-19T07:27:24;32.97;;;23.23;;
26271;SDS011;13997;48.902;12.472;2022-08-19T07:29:51;24.98;;;22.10;;
26271;SDS011;13997;48.902;12.472;2022-08-19T07:32:17;27.40;;;22.25;;
26271;SDS011;13997;48.902;12.472;2022-08-19T07:34:43;28.08;;;20.98;;
26271;SDS011;13997;48.902;12.472;2022-08-19T07:37:10;24.38;;;20.73;;
26271;SDS011;13997;48.902;12.472;2022-08-19T07:39:37;25.95;;;22.30;;
26271;SDS011;13997;48.902;12.472;2022-08-19T07:42:05;26.85;;;21.92;;
26271;SDS011;13997;48.902;12.472;2022-08-19T07:44:32;27.40;;;20.80;;
26271;SDS011;13997;48.902;12.472;2022-08-19T07:46:59;25.88;;;20.33;;
26271;SDS011;13997;48.902;12.472;2022-08-19T07:49:25;24.42;;;19.63;;
26271;SDS011;13997;48.902;12.472;2022-08-19T07:51:56;28.60;;;21.65;;
26271;SDS011;13997;48.902;12.472;2022-08-19T07:54:23;24.88;;;21.48;;
26271;SDS011;13997;48.902;12.472;2022-08-19T07:56:49;26.65;;;20.83;;
26271;SDS011;13997;48.902;12.472;2022-08-19T07:59:16;22.73;;;19.33;;
26271;SDS011;13997;48.902;12.472;2022-08-19T08:01:42;23.73;;;19.77;;
26271;SDS011;13997;48.902;12.472;2022-08-19T08:04:09;29.88;;;21.20;;
26271;SDS011;13997;48.902;12.472;2022-08-19T08:06:54;25.92;;;19.30;;
26271;SDS011;13997;48.902;12.472;2022-08-19T08:09:41;27.67;;;21.10;;
26271;SDS011;13997;48.902;12.472;2022-08-19T08:12:09;26.50;;;21.45;;
26271;SDS011;13997;48.902;12.472;2022-08-19T08:14:37;27.83;;;20.27;;
26271;SDS011;13997;48.902;12.472;2022-08-19T08:17:04;25.42;;;21.50;;
26271;SDS011;13997;48.902;12.472;2022-08-19T08:19:30;23.67;;;19.77;;
26271;SDS011;13997;48.902;12.472;2022-08-19T08:21:57;23.63;;;20.48;;
26271;SDS011;13997;48.902;12.472;2022-08-19T08:24:24;27.55;;;18.45;;
26271;SDS011;13997;48.902;12.472;2022-08-19T08:26:50;26.15;;;19.98;;
26271;SDS011;13997;48.902;12.472;2022-08-19T08:29:16;24.70;;;21.55;;
26271;SDS011;13997;48.902;12.472;2022-08-19T08:31:44;28.60;;;23.90;;
26271;SDS011;13997;48.902;12.472;2022-08-19T08:34:10;34.60;;;23.17;;
26271;SDS011;13997;48.902;12.472;2022-08-19T08:36:37;28.88;;;24.70;;
26271;SDS011;13997;48.902;12.472;2022-08-19T08:39:08;32.58;;;23.65;;
26271;SDS011;13997;48.902;12.472;2022-08-19T08:41:46;33.72;;;25.23;;
26271;SDS011;13997;48.902;12.472;2022-08-19T08:47:03;27.13;;;21.63;;
26271;SDS011;13997;48.902;12.472;2022-08-19T08:52:28;25.08;;;20.98;;
26271;SDS011;13997;48.902;12.472;2022-08-19T08:54:55;25.92;;;21.55;;
26271;SDS011;13997;48.902;12.472;2022-08-19T08:57:25;21.60;;;18.60;;
26271;SDS011;13997;48.902;12.472;2022-08-19T08:59:52;22.98;;;19.45;;
26271;SDS011;13997;48.902;12.472;2022-08-19T09:02:19;22.80;;;19.25;;
26271;SDS011;13997;48.902;12.472;2022-08-19T09:04:45;22.67;;;18.02;;
26271;SDS011;13997;48.902;12.472;2022-08-19T09:09:40;20.30;;;16.95;;
26271;SDS011;13997;48.902;12.472;2022-08-19T09:12:28;18.77;;;15.63;;
26271;SDS011;13997;48.902;12.472;2022-08-19T09:15:03;32.70;;;16.65;;
26271;SDS011;13997;48.902;12.472;2022-08-19T09:17:31;19.33;;;16.23;;
26271;SDS011;13997;48.902;12.472;2022-08-19T09:22:28;19.85;;;14.95;;
26271;SDS011;13997;48.902;12.472;2022-08-19T09:24:54;16.67;;;14.13;;
26271;SDS011;13997;48.902;12.472;2022-08-19T09:27:21;20.65;;;14.82;;
26271;SDS011;13997;48.902;12.472;2022-08-19T09:29:49;19.90;;;14.75;;
26271;SDS011;13997;48.902;12.472;2022-08-19T09:32:15;17.35;;;14.80;;
26271;SDS011;13997;48.902;12.472;2022-08-19T09:34:42;18.92;;;15.55;;
26271;SDS011;13997;48.902;12.472;2022-08-19T09:37:08;17.13;;;14.02;;
26271;SDS011;13997;48.902;12.472;2022-08-19T09:39:34;20.80;;;15.65;;
26271;SDS011;13997;48.902;12.472;2022-08-19T09:42:00;16.05;;;14.32;;
26271;SDS011;13997;48.902;12.472;2022-08-19T09:44:28;16.88;;;14.48;;
26271;SDS011;13997;48.902;12.472;2022-08-19T09:46:54;23.10;;;14.95;;
26271;SDS011;13997;48.902;12.472;2022-08-19T09:49:21;16.95;;;14.43;;
26271;SDS011;13997;48.902;12.472;2022-08-19T09:51:50;16.90;;;14.45;;
26271;SDS011;13997;48.902;12.472;2022-08-19T09:54:17;19.83;;;16.48;;
26271;SDS011;13997;48.902;12.472;2022-08-19T09:56:43;17.88;;;15.20;;
26271;SDS011;13997;48.902;12.472;2022-08-19T09:59:09;17.45;;;14.45;;
26271;SDS011;13997;48.902;12.472;2022-08-19T10:01:37;21.77;;;15.18;;
26271;SDS011;13997;48.902;12.472;2022-08-19T10:04:03;24.38;;;14.98;;
26271;SDS011;13997;48.902;12.472;2022-08-19T10:06:36;18.10;;;15.43;;
26271;SDS011;13997;48.902;12.472;2022-08-19T10:09:03;20.85;;;16.33;;
26271;SDS011;13997;48.902;12.472;2022-08-19T10:11:31;16.73;;;14.52;;
26271;SDS011;13997;48.902;12.472;2022-08-19T10:13:58;22.48;;;15.75;;
26271;SDS011;13997;48.902;12.472;2022-08-19T10:16:25;20.38;;;16.13;;
26271;SDS011;13997;48.902;12.472;2022-08-19T10:18:51;22.38;;;16.45;;
26271;SDS011;13997;48.902;12.472;2022-08-19T10:21:21;22.52;;;16.13;;
26271;SDS011;13997;48.902;12.472;2022-08-19T10:23:49;22.98;;;16.08;;
26271;SDS011;13997;48.902;12.472;2022-08-19T10:26:19;21.33;;;16.08;;
26271;SDS011;13997;48.902;12.472;2022-08-19T10:28:46;22.05;;;17.00;;
26271;SDS011;13997;48.902;12.472;2022-08-19T10:31:13;20.77;;;15.80;;
26271;SDS011;13997;48.902;12.472;2022-08-19T10:33:39;21.33;;;15.90;;
26271;SDS011;13997;48.902;12.472;2022-08-19T10:36:09;19.77;;;14.65;;
26271;SDS011;13997;48.902;12.472;2022-08-19T10:38:36;21.88;;;16.90;;
26271;SDS011;13997;48.902;12.472;2022-08-19T10:41:12;22.13;;;16.20;;
26271;SDS011;13997;48.902;12.472;2022-08-19T10:43:39;19.73;;;14.45;;
26271;SDS011;13997;48.902;12.472;2022-08-19T10:46:06;18.38;;;14.07;;
26271;SDS011;13997;48.902;12.472;2022-08-19T10:48:34;23.77;;;14.27;;
26271;SDS011;13997;48.902;12.472;2022-08-19T10:51:00;19.70;;;14.27;;
26271;SDS011;13997;48.902;12.472;2022-08-19T10:53:44;19.00;;;15.07;;
26271;SDS011;13997;48.902;12.472;2022-08-19T10:56:10;18.40;;;14.43;;
26271;SDS011;13997;48.902;12.472;2022-08-19T10:58:55;19.00;;;13.95;;
26271;SDS011;13997;48.902;12.472;2022-08-19T11:01:25;20.02;;;14.85;;
26271;SDS011;13997;48.902;12.472;2022-08-19T11:03:51;17.17;;;13.38;;
26271;SDS011;13997;48.902;12.472;2022-08-19T11:06:17;15.65;;;12.25;;
26271;SDS011;13997;48.902;12.472;2022-08-19T11:08:44;19.52;;;12.35;;
26271;SDS011;13997;48.902;12.472;2022-08-19T11:11:11;14.75;;;11.30;;
26271;SDS011;13997;48.902;12.472;2022-08-19T11:13:38;15.95;;;11.30;;
26271;SDS011;13997;48.902;12.472;2022-08-19T11:16:06;13.65;;;11.45;;
26271;SDS011;13997;48.902;12.472;2022-08-19T11:18:39;14.77;;;12.98;;
26271;SDS011;13997;48.902;12.472;2022-08-19T11:21:14;15.82;;;12.20;;
26271;SDS011;13997;48.902;12.472;2022-08-19T11:23:42;16.55;;;12.73;;
26271;SDS011;13997;48.902;12.472;2022-08-19T11:26:08;19.73;;;12.63;;
26271;SDS011;13997;48.902;12.472;2022-08-19T11:28:34;17.83;;;12.68;;
26271;SDS011;13997;48.902;12.472;2022-08-19T11:31:00;16.33;;;13.43;;
26271;SDS011;13997;48.902;12.472;2022-08-19T11:33:28;17.35;;;12.35;;
26271;SDS011;13997;48.902;12.472;2022-08-19T11:35:54;18.80;;;12.88;;
26271;SDS011;13997;48.902;12.472;2022-08-19T11:38:22;18.85;;;14.32;;
26271;SDS011;13997;48.902;12.472;2022-08-19T11:40:58;20.38;;;12.18;;
26271;SDS011;13997;48.902;12.472;2022-08-19T11:43:24;26.15;;;14.85;;
26271;SDS011;13997;48.902;12.472;2022-08-19T11:45:52;16.80;;;14.75;;
26271;SDS011;13997;48.902;12.472;2022-08-19T11:48:18;23.33;;;14.18;;
26271;SDS011;13997;48.902;12.472;2022-08-19T11:50:47;16.63;;;13.80;;
26271;SDS011;13997;48.902;12.472;2022-08-19T11:53:13;19.65;;;13.95;;
26271;SDS011;13997;48.902;12.472;2022-08-19T11:55:39;20.50;;;13.90;;
26271;SDS011;13997;48.902;12.472;2022-08-19T11:58:05;21.65;;;14.07;;
26271;SDS011;13997;48.902;12.472;2022-08-19T12:00:33;14.85;;;12.48;;
26271;SDS011;13997;48.902;12.472;2022-08-19T12:03:00;15.88;;;11.65;;
26271;SDS011;13997;48.902;12.472;2022-08-19T12:05:26;19.88;;;12.43;;
26271;SDS011;13997;48.902;12.472;2022-08-19T12:07:52;13.15;;;11.25;;
26271;SDS011;13997;48.902;12.472;2022-08-19T12:10:19;16.42;;;12.32;;
26271;SDS011;13997;48.902;12.472;2022-08-19T12:12:45;17.20;;;11.95;;
26271;SDS011;13997;48.902;12.472;2022-08-19T12:15:12;11.52;;;10.32;;
26271;SDS011;13997;48.902;12.472;2022-08-19T12:17:39;13.45;;;10.55;;
26271;SDS011;13997;48.902;12.472;2022-08-19T12:20:06;14.50;;;11.45;;
26271;SDS011;13997;48.902;12.472;2022-08-19T12:22:34;15.43;;;11.75;;
26271;SDS011;13997;48.902;12.472;2022-08-19T12:25:00;14.93;;;11.60;;
26271;SDS011;13997;48.902;12.472;2022-08-19T12:27:26;13.32;;;11.05;;
26271;SDS011;13997;48.902;12.472;2022-08-19T12:29:52;13.88;;;10.57;;
26271;SDS011;13997;48.902;12.472;2022-08-19T12:32:18;15.27;;;12.60;;
26271;SDS011;13997;48.902;12.472;2022-08-19T12:34:44;15.50;;;13.00;;
26271;SDS011;13997;48.902;12.472;2022-08-19T12:37:12;18.35;;;13.35;;
26271;SDS011;13997;48.902;12.472;2022-08-19T12:39:39;19.15;;;13.55;;
26271;SDS011;13997;48.902;12.472;2022-08-19T12:42:06;21.80;;;12.90;;
26271;SDS011;13997;48.902;12.472;2022-08-19T12:44:33;14.20;;;12.68;;
26271;SDS011;13997;48.902;12.472;2022-08-19T12:47:00;17.23;;;13.27;;
26271;SDS011;13997;48.902;12.472;2022-08-19T12:49:28;20.73;;;14.10;;
26271;SDS011;13997;48.902;12.472;2022-08-19T12:51:54;15.18;;;12.48;;
26271;SDS011;13997;48.902;12.472;2022-08-19T12:54:20;17.05;;;13.13;;
26271;SDS011;13997;48.902;12.472;2022-08-19T12:56:46;15.38;;;13.52;;
26271;SDS011;13997;48.902;12.472;2022-08-19T12:59:12;17.95;;;12.23;;
26271;SDS011;13997;48.902;12.472;2022-08-19T13:01:39;14.20;;;11.57;;
26271;SDS011;13997;48.902;12.472;2022-08-19T13:04:06;14.68;;;11.55;;
26271;SDS011;13997;48.902;12.472;2022-08-19T13:06:32;17.02;;;12.55;;
26271;SDS011;13997;48.902;12.472;2022-08-19T13:08:58;17.80;;;11.77;;
26271;SDS011;13997;48.902;12.472;2022-08-19T13:11:24;13.55;;;9.70;;
26271;SDS011;13997;48.902;12.472;2022-08-19T13:13:51;12.90;;;10.10;;
26271;SDS011;13997;48.902;12.472;2022-08-19T13:16:17;9.90;;;8.90;;
26271;SDS011;13997;48.902;12.472;2022-08-19T13:18:45;12.18;;;9.45;;
26271;SDS011;13997;48.902;12.472;2022-08-19T13:21:18;10.23;;;9.13;;
26271;SDS011;13997;48.902;12.472;2022-08-19T13:23:45;10.93;;;9.25;;
26271;SDS011;13997;48.902;12.472;2022-08-19T13:26:11;11.10;;;8.70;;
26271;SDS011;13997;48.902;12.472;2022-08-19T13:28:38;11.32;;;8.35;;
26271;SDS011;13997;48.902;12.472;2022-08-19T13:31:24;11.00;;;8.38;;
26271;SDS011;13997;48.902;12.472;2022-08-19T13:34:10;10.18;;;8.57;;
26271;SDS011;13997;48.902;12.472;2022-08-19T13:36:36;10.02;;;8.10;;
26271;SDS011;13997;48.902;12.472;2022-08-19T13:39:03;10.52;;;8.25;;
26271;SDS011;13997;48.902;12.472;2022-08-19T13:41:29;10.73;;;7.95;;
26271;SDS011;13997;48.902;12.472;2022-08-19T13:43:56;11.25;;;8.38;;
26271;SDS011;13997;48.902;12.472;2022-08-19T13:46:22;11.25;;;8.10;;
26271;SDS011;13997;48.902;12.472;2022-08-19T13:48:48;10.27;;;8.10;;
26271;SDS011;13997;48.902;12.472;2022-08-19T13:51:14;11.98;;;8.88;;
26271;SDS011;13997;48.902;12.472;2022-08-19T13:53:41;11.23;;;8.20;;
26271;SDS011;13997;48.902;12.472;2022-08-19T13:56:08;9.43;;;7.72;;
26271;SDS011;13997;48.902;12.472;2022-08-19T13:58:35;11.45;;;7.90;;
26271;SDS011;13997;48.902;12.472;2022-08-19T14:01:01;12.20;;;7.47;;
26271;SDS011;13997;48.902;12.472;2022-08-19T14:03:27;11.75;;;7.22;;
26271;SDS011;13997;48.902;12.472;2022-08-19T14:05:53;10.18;;;7.00;;
26271;SDS011;13997;48.902;12.472;2022-08-19T14:08:19;7.82;;;6.75;;
26271;SDS011;13997;48.902;12.472;2022-08-19T14:10:45;7.00;;;6.30;;
26271;SDS011;13997;48.902;12.472;2022-08-19T14:13:16;8.95;;;6.93;;
26271;SDS011;13997;48.902;12.472;2022-08-19T14:15:42;7.93;;;6.43;;
26271;SDS011;13997;48.902;12.472;2022-08-19T14:18:08;9.82;;;7.78;;
26271;SDS011;13997;48.902;12.472;2022-08-19T14:20:35;9.95;;;6.72;;
26271;SDS011;13997;48.902;12.472;2022-08-19T14:23:01;9.50;;;7.15;;
26271;SDS011;13997;48.902;12.472;2022-08-19T14:25:28;10.27;;;7.63;;